sensor_id;sensor_type;location;lat;lon;timestamp;temperature;humidity
9403;DHT22;4741;49.834;10.740;2023-04-24T06:57:48;10.90;99.90
9403;DHT22;4741;49.834;10.740;2023-04-24T07:00:14;11.00;99.90
9403;DHT22;4741;49.834;10.740;2023-04-24T07:02:41;11.00;99.90
9403;DHT22;4741;49.834;10.740;2023-04-24T07:05:08;12.30;99.90
9403;DHT22;4741;49.834;10.740;2023-04-24T07:07:35;10.70;99.90
9403;DHT22;4741;49.834;10.740;2023-04-24T07:10:04;10.60;99.90
9403;DHT22;4741;49.834;10.740;2023-04-24T07:12:31;11.00;99.90
9403;DHT22;4741;49.834;10.740;2023-04-24T07:14:59;10.70;99.90
9403;DHT22;4741;49.834;10.740;2023-04-24T07:17:26;12.00;99.90
9403;DHT22;4741;49.834;10.740;2023-04-24T07:19:53;11.80;99.90
9403;DHT22;4741;49.834;10.740;2023-04-24T07:22:19;12.10;99.90
9403;DHT22;4741;49.834;10.740;2023-04-24T07:24:46;12.00;99.90
9403;DHT22;4741;49.834;10.740;2023-04-24T07:27:13;12.10;99.90
9403;DHT22;4741;49.834;10.740;2023-04-24T07:29:41;12.10;99.90
9403;DHT22;4741;49.834;10.740;2023-04-24T07:32:09;12.00;99.90
9403;DHT22;4741;49.834;10.740;2023-04-24T07:34:35;12.10;99.90
9403;DHT22;4741;49.834;10.740;2023-04-24T07:37:02;12.00;99.90
9403;DHT22;4741;49.834;10.740;2023-04-24T07:39:29;11.90;99.90
9403;DHT22;4741;49.834;10.740;2023-04-24T07:41:56;11.80;99.90
9403;DHT22;4741;49.834;10.740;2023-04-24T07:44:23;11.70;99.90
9403;DHT22;4741;49.834;10.740;2023-04-24T07:46:49;12.50;99.90
9403;DHT22;4741;49.834;10.740;2023-04-24T07:49:16;12.30;99.90
9403;DHT22;4741;49.834;10.740;2023-04-24T07:51:45;12.20;99.90
9403;DHT22;4741;49.834;10.740;2023-04-24T07:54:12;12.00;99.90
9403;DHT22;4741;49.834;10.740;2023-04-24T07:56:39;12.90;99.90
9403;DHT22;4741;49.834;10.740;2023-04-24T07:59:06;12.80;99.90
9403;DHT22;4741;49.834;10.740;2023-04-24T08:01:32;11.90;99.90
9403;DHT22;4741;49.834;10.740;2023-04-24T08:03:59;11.70;99.90
9403;DHT22;4741;49.834;10.740;2023-04-24T08:06:26;11.80;99.90
9403;DHT22;4741;49.834;10.740;2023-04-24T08:08:57;11.80;99.90
9403;DHT22;4741;49.834;10.740;2023-04-24T08:11:29;12.20;99.90
9403;DHT22;4741;49.834;10.740;2023-04-24T08:13:56;11.90;99.90
9403;DHT22;4741;49.834;10.740;2023-04-24T08:16:22;11.80;99.90
9403;DHT22;4741;49.834;10.740;2023-04-24T08:18:52;13.10;99.90
9403;DHT22;4741;49.834;10.740;2023-04-24T08:21:19;12.30;99.90
9403;DHT22;4741;49.834;10.740;2023-04-24T08:23:47;12.10;99.90
9403;DHT22;4741;49.834;10.740;2023-04-24T08:26:13;11.50;99.90
9403;DHT22;4741;49.834;10.740;2023-04-24T08:28:40;11.30;99.90
9403;DHT22;4741;49.834;10.740;2023-04-24T08:31:07;11.60;99.90
9403;DHT22;4741;49.834;10.740;2023-04-24T08:36:02;12.50;99.90
9403;DHT22;4741;49.834;10.740;2023-04-24T08:38:28;12.40;99.90
9403;DHT22;4741;49.834;10.740;2023-04-24T08:40:56;12.40;99.90
9403;DHT22;4741;49.834;10.740;2023-04-24T08:43:22;12.00;99.90
9403;DHT22;4741;49.834;10.740;2023-04-24T08:45:51;12.20;99.90
9403;DHT22;4741;49.834;10.740;2023-04-24T08:48:21;12.20;99.90
9403;DHT22;4741;49.834;10.740;2023-04-24T08:50:57;12.30;99.90
9403;DHT22;4741;49.834;10.740;2023-04-24T08:53:24;12.20;99.90
9403;DHT22;4741;49.834;10.740;2023-04-24T08:55:51;11.90;99.90
9403;DHT22;4741;49.834;10.740;2023-04-24T08:58:18;11.90;99.90
9403;DHT22;4741;49.834;10.740;2023-04-24T09:00:45;11.90;99.90
9403;DHT22;4741;49.834;10.740;2023-04-24T09:03:15;12.20;99.90
9403;DHT22;4741;49.834;10.740;2023-04-24T09:05:43;12.00;99.90
9403;DHT22;4741;49.834;10.740;2023-04-24T09:08:12;12.20;99.90
9403;DHT22;4741;49.834;10.740;2023-04-24T09:10:40;12.30;99.90
9403;DHT22;4741;49.834;10.740;2023-04-24T09:13:07;12.40;99.90
9403;DHT22;4741;49.834;10.740;2023-04-24T09:15:39;12.40;99.90
9403;DHT22;4741;49.834;10.740;2023-04-24T09:18:06;12.40;99.90
9403;DHT22;4741;49.834;10.740;2023-04-24T09:20:33;12.40;99.90
9403;DHT22;4741;49.834;10.740;2023-04-24T09:23:02;11.90;99.90
9403;DHT22;4741;49.834;10.740;2023-04-24T09:25:32;11.60;99.90
9403;DHT22;4741;49.834;10.740;2023-04-24T09:28:03;11.50;99.90
9403;DHT22;4741;49.834;10.740;2023-04-24T09:30:30;11.30;99.90
9403;DHT22;4741;49.834;10.740;2023-04-24T09:33:14;11.50;99.90
9403;DHT22;4741;49.834;10.740;2023-04-24T09:35:42;11.70;99.90
9403;DHT22;4741;49.834;10.740;2023-04-24T09:38:09;11.80;99.90
9403;DHT22;4741;49.834;10.740;2023-04-24T09:40:37;11.90;99.90
9403;DHT22;4741;49.834;10.740;2023-04-24T09:43:09;12.00;99.90
9403;DHT22;4741;49.834;10.740;2023-04-24T09:45:37;12.00;99.90
9403;DHT22;4741;49.834;10.740;2023-04-24T09:48:04;12.00;99.90
9403;DHT22;4741;49.834;10.740;2023-04-24T09:50:32;11.90;99.90
9403;DHT22;4741;49.834;10.740;2023-04-24T09:53:05;11.80;99.90
9403;DHT22;4741;49.834;10.740;2023-04-24T09:55:38;11.70;99.90
9403;DHT22;4741;49.834;10.740;2023-04-24T09:58:05;11.50;99.90
9403;DHT22;4741;49.834;10.740;2023-04-24T10:00:34;11.30;99.90
9403;DHT22;4741;49.834;10.740;2023-04-24T10:03:01;11.00;99.90
9403;DHT22;4741;49.834;10.740;2023-04-24T10:08:02;11.00;99.90
9403;DHT22;4741;49.834;10.740;2023-04-24T10:10:30;11.80;99.90
9403;DHT22;4741;49.834;10.740;2023-04-24T10:12:57;12.00;99.90
9403;DHT22;4741;49.834;10.740;2023-04-24T10:15:24;12.40;99.90
9403;DHT22;4741;49.834;10.740;2023-04-24T10:17:51;12.70;99.90
9403;DHT22;4741;49.834;10.740;2023-04-24T10:20:22;12.50;99.90
9403;DHT22;4741;49.834;10.740;2023-04-24T10:22:49;12.80;99.90
9403;DHT22;4741;49.834;10.740;2023-04-24T10:25:18;12.80;99.90
9403;DHT22;4741;49.834;10.740;2023-04-24T10:27:44;12.70;99.90
9403;DHT22;4741;49.834;10.740;2023-04-24T10:30:12;13.10;99.90
9403;DHT22;4741;49.834;10.740;2023-04-24T10:32:39;12.90;99.90
9403;DHT22;4741;49.834;10.740;2023-04-24T10:35:06;12.60;99.90
9403;DHT22;4741;49.834;10.740;2023-04-24T10:37:41;13.30;99.90
9403;DHT22;4741;49.834;10.740;2023-04-24T10:40:09;14.20;99.90
9403;DHT22;4741;49.834;10.740;2023-04-24T10:42:39;13.70;99.90
9403;DHT22;4741;49.834;10.740;2023-04-24T10:45:06;14.00;99.90
9403;DHT22;4741;49.834;10.740;2023-04-24T10:47:39;13.70;99.90
9403;DHT22;4741;49.834;10.740;2023-04-24T10:50:10;13.30;99.90
9403;DHT22;4741;49.834;10.740;2023-04-24T10:52:43;13.40;99.90
9403;DHT22;4741;49.834;10.740;2023-04-24T10:55:12;13.00;99.90
9403;DHT22;4741;49.834;10.740;2023-04-24T10:57:38;12.80;99.90
9403;DHT22;4741;49.834;10.740;2023-04-24T11:00:15;12.70;99.90
9403;DHT22;4741;49.834;10.740;2023-04-24T11:02:42;13.00;99.90
9403;DHT22;4741;49.834;10.740;2023-04-24T11:05:16;13.70;99.90
9403;DHT22;4741;49.834;10.740;2023-04-24T11:10:44;13.30;99.90
9403;DHT22;4741;49.834;10.740;2023-04-24T11:13:15;13.10;99.90
9403;DHT22;4741;49.834;10.740;2023-04-24T11:15:43;12.70;99.90
9403;DHT22;4741;49.834;10.740;2023-04-24T11:18:16;12.70;99.90
9403;DHT22;4741;49.834;10.740;2023-04-24T11:20:44;12.90;99.90
9403;DHT22;4741;49.834;10.740;2023-04-24T11:23:12;13.00;99.90
9403;DHT22;4741;49.834;10.740;2023-04-24T11:25:39;13.30;99.90
9403;DHT22;4741;49.834;10.740;2023-04-24T11:33:04;16.30;99.90
9403;DHT22;4741;49.834;10.740;2023-04-24T11:35:41;16.00;99.90
9403;DHT22;4741;49.834;10.740;2023-04-24T11:38:08;16.00;99.90
9403;DHT22;4741;49.834;10.740;2023-04-24T11:40:49;14.40;99.90
9403;DHT22;4741;49.834;10.740;2023-04-24T11:43:16;14.20;99.90
9403;DHT22;4741;49.834;10.740;2023-04-24T11:48:12;13.20;99.90
9403;DHT22;4741;49.834;10.740;2023-04-24T11:50:38;12.60;99.90
9403;DHT22;4741;49.834;10.740;2023-04-24T11:53:05;12.50;99.90
9403;DHT22;4741;49.834;10.740;2023-04-24T11:55:32;12.30;99.90
9403;DHT22;4741;49.834;10.740;2023-04-24T11:57:59;12.20;99.90
9403;DHT22;4741;49.834;10.740;2023-04-24T12:00:27;12.10;99.90
9403;DHT22;4741;49.834;10.740;2023-04-24T12:03:04;11.60;99.90
9403;DHT22;4741;49.834;10.740;2023-04-24T12:05:32;11.40;99.90
9403;DHT22;4741;49.834;10.740;2023-04-24T12:07:59;11.30;99.90
9403;DHT22;4741;49.834;10.740;2023-04-24T12:10:26;11.20;99.90
9403;DHT22;4741;49.834;10.740;2023-04-24T12:12:54;11.10;99.90
9403;DHT22;4741;49.834;10.740;2023-04-24T12:15:22;11.10;99.90
9403;DHT22;4741;49.834;10.740;2023-04-24T12:17:53;11.60;99.90
9403;DHT22;4741;49.834;10.740;2023-04-24T12:20:27;11.90;99.90
9403;DHT22;4741;49.834;10.740;2023-04-24T12:22:54;11.90;99.90
9403;DHT22;4741;49.834;10.740;2023-04-24T12:25:22;11.60;99.90
9403;DHT22;4741;49.834;10.740;2023-04-24T12:27:53;11.60;99.90
9403;DHT22;4741;49.834;10.740;2023-04-24T12:30:21;11.60;99.90
9403;DHT22;4741;49.834;10.740;2023-04-24T12:32:49;11.40;99.90
9403;DHT22;4741;49.834;10.740;2023-04-24T12:35:19;11.20;99.90
9403;DHT22;4741;49.834;10.740;2023-04-24T12:37:47;11.00;99.90
9403;DHT22;4741;49.834;10.740;2023-04-24T12:40:14;11.30;99.90
9403;DHT22;4741;49.834;10.740;2023-04-24T12:42:48;11.50;99.90
9403;DHT22;4741;49.834;10.740;2023-04-24T12:45:15;11.70;99.90
9403;DHT22;4741;49.834;10.740;2023-04-24T12:47:43;12.10;99.90
9403;DHT22;4741;49.834;10.740;2023-04-24T12:50:10;12.80;99.90
9403;DHT22;4741;49.834;10.740;2023-04-24T12:52:37;14.40;99.90
9403;DHT22;4741;49.834;10.740;2023-04-24T12:55:04;15.40;99.90
9403;DHT22;4741;49.834;10.740;2023-04-24T12:57:31;14.50;99.90
9403;DHT22;4741;49.834;10.740;2023-04-24T12:59:58;15.00;99.90
9403;DHT22;4741;49.834;10.740;2023-04-24T13:02:25;14.10;99.90
9403;DHT22;4741;49.834;10.740;2023-04-24T13:04:52;13.00;99.90
9403;DHT22;4741;49.834;10.740;2023-04-24T13:07:21;12.10;99.90
9403;DHT22;4741;49.834;10.740;2023-04-24T13:09:48;13.40;99.90
9403;DHT22;4741;49.834;10.740;2023-04-24T13:12:15;13.60;99.90
9403;DHT22;4741;49.834;10.740;2023-04-24T13:14:42;15.40;99.90
9403;DHT22;4741;49.834;10.740;2023-04-24T13:17:09;16.30;99.90
9403;DHT22;4741;49.834;10.740;2023-04-24T13:24:29;15.80;99.90
9403;DHT22;4741;49.834;10.740;2023-04-24T13:29:24;15.10;99.90
9403;DHT22;4741;49.834;10.740;2023-04-24T13:36:52;14.40;99.90
9403;DHT22;4741;49.834;10.740;2023-04-24T13:39:19;13.20;99.90
9403;DHT22;4741;49.834;10.740;2023-04-24T13:49:14;12.30;99.90
9403;DHT22;4741;49.834;10.740;2023-04-24T13:51:42;12.40;99.90
9403;DHT22;4741;49.834;10.740;2023-04-24T13:54:08;12.40;99.90
9403;DHT22;4741;49.834;10.740;2023-04-24T13:56:35;12.50;99.90
9403;DHT22;4741;49.834;10.740;2023-04-24T14:03:56;11.70;99.90
9403;DHT22;4741;49.834;10.740;2023-04-24T14:06:23;11.50;99.90
9403;DHT22;4741;49.834;10.740;2023-04-24T14:08:50;12.30;99.90
9403;DHT22;4741;49.834;10.740;2023-04-24T14:11:17;11.30;99.90
9403;DHT22;4741;49.834;10.740;2023-04-24T14:13:44;11.40;99.90
9403;DHT22;4741;49.834;10.740;2023-04-24T14:16:12;11.40;99.90
9403;DHT22;4741;49.834;10.740;2023-04-24T14:18:39;11.50;99.90
9403;DHT22;4741;49.834;10.740;2023-04-24T14:21:05;11.60;99.90
9403;DHT22;4741;49.834;10.740;2023-04-24T14:23:32;11.70;99.90
9403;DHT22;4741;49.834;10.740;2023-04-24T14:25:59;12.10;99.90
9403;DHT22;4741;49.834;10.740;2023-04-24T14:28:26;12.60;99.90
9403;DHT22;4741;49.834;10.740;2023-04-24T14:30:53;12.80;99.90
9403;DHT22;4741;49.834;10.740;2023-04-24T14:33:20;12.60;99.90
9403;DHT22;4741;49.834;10.740;2023-04-24T14:35:46;12.50;99.90
9403;DHT22;4741;49.834;10.740;2023-04-24T14:38:14;12.40;99.90
9403;DHT22;4741;49.834;10.740;2023-04-24T14:40:41;11.80;99.90
9403;DHT22;4741;49.834;10.740;2023-04-24T14:43:11;12.30;99.90
9403;DHT22;4741;49.834;10.740;2023-04-24T14:45:38;12.30;99.90
9403;DHT22;4741;49.834;10.740;2023-04-24T14:48:06;11.70;99.90
9403;DHT22;4741;49.834;10.740;2023-04-24T14:50:34;12.90;99.90
9403;DHT22;4741;49.834;10.740;2023-04-24T14:53:01;12.20;99.90
9403;DHT22;4741;49.834;10.740;2023-04-24T14:55:28;12.10;99.90
9403;DHT22;4741;49.834;10.740;2023-04-24T14:57:55;11.90;99.90
9403;DHT22;4741;49.834;10.740;2023-04-24T15:00:22;11.90;99.90
9403;DHT22;4741;49.834;10.740;2023-04-24T15:02:50;11.50;99.90
9403;DHT22;4741;49.834;10.740;2023-04-24T15:05:17;11.60;99.90
9403;DHT22;4741;49.834;10.740;2023-04-24T15:07:44;11.60;99.90
9403;DHT22;4741;49.834;10.740;2023-04-24T15:10:11;11.70;99.90
9403;DHT22;4741;49.834;10.740;2023-04-24T15:12:38;11.80;99.90
9403;DHT22;4741;49.834;10.740;2023-04-24T15:15:05;11.80;99.90
9403;DHT22;4741;49.834;10.740;2023-04-24T15:17:32;11.70;99.90
9403;DHT22;4741;49.834;10.740;2023-04-24T15:19:59;11.40;99.90
9403;DHT22;4741;49.834;10.740;2023-04-24T15:22:27;11.20;99.90
9403;DHT22;4741;49.834;10.740;2023-04-24T15:24:53;11.20;99.90
9403;DHT22;4741;49.834;10.740;2023-04-24T15:27:20;11.50;99.90
9403;DHT22;4741;49.834;10.740;2023-04-24T15:29:47;11.20;99.90
9403;DHT22;4741;49.834;10.740;2023-04-24T15:32:14;11.90;99.90
9403;DHT22;4741;49.834;10.740;2023-04-24T15:34:40;12.00;99.90
9403;DHT22;4741;49.834;10.740;2023-04-24T15:37:07;12.20;99.90
9403;DHT22;4741;49.834;10.740;2023-04-24T15:39:34;12.30;99.90
9403;DHT22;4741;49.834;10.740;2023-04-24T15:42:00;11.80;99.90
9403;DHT22;4741;49.834;10.740;2023-04-24T15:44:28;11.90;99.90
9403;DHT22;4741;49.834;10.740;2023-04-24T15:46:54;11.50;99.90
9403;DHT22;4741;49.834;10.740;2023-04-24T15:49:21;11.40;99.90
9403;DHT22;4741;49.834;10.740;2023-04-24T15:51:48;12.80;99.90
9403;DHT22;4741;49.834;10.740;2023-04-24T15:54:15;12.50;99.90
9403;DHT22;4741;49.834;10.740;2023-04-24T15:56:41;12.00;99.90
9403;DHT22;4741;49.834;10.740;2023-04-24T15:59:10;12.40;99.90
9403;DHT22;4741;49.834;10.740;2023-04-24T16:01:42;11.50;99.90
9403;DHT22;4741;49.834;10.740;2023-04-24T16:04:09;11.40;99.90
9403;DHT22;4741;49.834;10.740;2023-04-24T16:06:36;11.50;99.90
9403;DHT22;4741;49.834;10.740;2023-04-24T16:09:03;11.50;99.90
9403;DHT22;4741;49.834;10.740;2023-04-24T16:14:30;11.70;99.90
9403;DHT22;4741;49.834;10.740;2023-04-24T16:16:59;11.80;99.90
9403;DHT22;4741;49.834;10.740;2023-04-24T16:24:26;16.40;99.90
9403;DHT22;4741;49.834;10.740;2023-04-24T16:26:54;15.90;99.90
9403;DHT22;4741;49.834;10.740;2023-04-24T16:29:20;16.50;99.90
9403;DHT22;4741;49.834;10.740;2023-04-24T16:34:14;13.30;99.90
9403;DHT22;4741;49.834;10.740;2023-04-24T16:36:41;12.60;99.90
9403;DHT22;4741;49.834;10.740;2023-04-24T16:39:08;12.20;99.90
9403;DHT22;4741;49.834;10.740;2023-04-24T16:44:02;12.00;99.90
9403;DHT22;4741;49.834;10.740;2023-04-24T16:46:29;11.50;99.90
9403;DHT22;4741;49.834;10.740;2023-04-24T16:48:55;11.50;99.90
9403;DHT22;4741;49.834;10.740;2023-04-24T16:51:22;11.20;99.90
9403;DHT22;4741;49.834;10.740;2023-04-24T16:53:49;11.30;99.90
9403;DHT22;4741;49.834;10.740;2023-04-24T16:56:16;11.40;99.90
9403;DHT22;4741;49.834;10.740;2023-04-24T16:58:42;11.30;99.90
9403;DHT22;4741;49.834;10.740;2023-04-24T17:01:09;11.30;99.90
9403;DHT22;4741;49.834;10.740;2023-04-24T17:03:36;11.20;99.90
9403;DHT22;4741;49.834;10.740;2023-04-24T17:06:03;11.20;99.90
9403;DHT22;4741;49.834;10.740;2023-04-24T17:08:29;11.20;99.90
9403;DHT22;4741;49.834;10.740;2023-04-24T17:10:58;11.30;99.90
9403;DHT22;4741;49.834;10.740;2023-04-24T17:13:24;11.40;99.90
9403;DHT22;4741;49.834;10.740;2023-04-24T17:15:51;11.40;99.90
9403;DHT22;4741;49.834;10.740;2023-04-24T17:18:18;11.10;99.90
9403;DHT22;4741;49.834;10.740;2023-04-24T17:20:45;11.00;99.90
9403;DHT22;4741;49.834;10.740;2023-04-24T17:23:11;10.90;99.90
9403;DHT22;4741;49.834;10.740;2023-04-24T17:25:39;10.90;99.90
9403;DHT22;4741;49.834;10.740;2023-04-24T17:28:13;10.70;99.90
9403;DHT22;4741;49.834;10.740;2023-04-24T17:30:41;10.70;99.90
9403;DHT22;4741;49.834;10.740;2023-04-24T17:33:08;10.60;99.90
9403;DHT22;4741;49.834;10.740;2023-04-24T17:35:35;10.60;99.90
9403;DHT22;4741;49.834;10.740;2023-04-24T17:38:01;10.50;99.90
9403;DHT22;4741;49.834;10.740;2023-04-24T17:40:28;10.40;99.90
9403;DHT22;4741;49.834;10.740;2023-04-24T17:42:55;10.30;99.90
9403;DHT22;4741;49.834;10.740;2023-04-24T17:45:21;10.00;99.90
9403;DHT22;4741;49.834;10.740;2023-04-24T17:47:48;10.50;99.90
9403;DHT22;4741;49.834;10.740;2023-04-24T17:50:17;9.70;99.90
9403;DHT22;4741;49.834;10.740;2023-04-24T17:52:44;9.80;99.90
9403;DHT22;4741;49.834;10.740;2023-04-24T17:55:10;10.00;99.90
9403;DHT22;4741;49.834;10.740;2023-04-24T17:57:37;9.70;99.90
9403;DHT22;4741;49.834;10.740;2023-04-24T18:00:04;9.60;99.90
9403;DHT22;4741;49.834;10.740;2023-04-24T18:02:30;9.30;99.90
9403;DHT22;4741;49.834;10.740;2023-04-24T18:04:57;9.20;99.90
9403;DHT22;4741;49.834;10.740;2023-04-24T18:07:24;9.20;99.90
9403;DHT22;4741;49.834;10.740;2023-04-24T18:09:51;9.30;99.90
9403;DHT22;4741;49.834;10.740;2023-04-24T18:12:20;9.30;99.90
9403;DHT22;4741;49.834;10.740;2023-04-24T18:14:47;9.20;99.90
9403;DHT22;4741;49.834;10.740;2023-04-24T18:17:13;9.20;99.90
9403;DHT22;4741;49.834;10.740;2023-04-24T18:19:40;8.80;99.90
9403;DHT22;4741;49.834;10.740;2023-04-24T18:22:06;8.80;99.90
9403;DHT22;4741;49.834;10.740;2023-04-24T18:24:33;9.10;99.90
9403;DHT22;4741;49.834;10.740;2023-04-24T18:27:00;9.20;99.90
9403;DHT22;4741;49.834;10.740;2023-04-24T18:29:27;9.20;99.90
9403;DHT22;4741;49.834;10.740;2023-04-24T18:31:54;9.10;99.90
9403;DHT22;4741;49.834;10.740;2023-04-24T18:34:20;9.00;99.90
9403;DHT22;4741;49.834;10.740;2023-04-24T18:36:47;9.10;99.90
9403;DHT22;4741;49.834;10.740;2023-04-24T18:39:14;8.90;99.90
9403;DHT22;4741;49.834;10.740;2023-04-24T18:41:41;8.80;99.90
9403;DHT22;4741;49.834;10.740;2023-04-24T18:44:07;8.70;99.90
9403;DHT22;4741;49.834;10.740;2023-04-24T18:46:35;8.60;99.90
9403;DHT22;4741;49.834;10.740;2023-04-24T18:49:06;8.30;99.90
9403;DHT22;4741;49.834;10.740;2023-04-24T18:51:33;8.00;99.90
9403;DHT22;4741;49.834;10.740;2023-04-24T18:54:18;8.10;99.90
9403;DHT22;4741;49.834;10.740;2023-04-24T18:56:44;8.10;99.90
9403;DHT22;4741;49.834;10.740;2023-04-24T18:59:11;7.90;99.90
9403;DHT22;4741;49.834;10.740;2023-04-24T19:01:38;7.70;99.90
9403;DHT22;4741;49.834;10.740;2023-04-24T19:04:04;7.70;99.90
9403;DHT22;4741;49.834;10.740;2023-04-24T19:06:32;7.70;99.90
9403;DHT22;4741;49.834;10.740;2023-04-24T19:08:58;7.70;99.90
9403;DHT22;4741;49.834;10.740;2023-04-24T19:11:25;7.60;99.90
9403;DHT22;4741;49.834;10.740;2023-04-24T19:13:52;7.80;99.90
9403;DHT22;4741;49.834;10.740;2023-04-24T19:16:18;7.90;99.90
9403;DHT22;4741;49.834;10.740;2023-04-24T19:18:45;7.90;99.90
9403;DHT22;4741;49.834;10.740;2023-04-24T19:21:12;8.00;99.90
9403;DHT22;4741;49.834;10.740;2023-04-24T19:23:39;8.00;99.90
9403;DHT22;4741;49.834;10.740;2023-04-24T19:26:06;7.90;99.90
9403;DHT22;4741;49.834;10.740;2023-04-24T19:28:33;7.90;99.90
9403;DHT22;4741;49.834;10.740;2023-04-24T19:30:59;7.70;99.90
9403;DHT22;4741;49.834;10.740;2023-04-24T19:33:26;7.80;99.90
9403;DHT22;4741;49.834;10.740;2023-04-24T19:35:53;8.00;99.90
9403;DHT22;4741;49.834;10.740;2023-04-24T19:38:19;8.00;99.90
9403;DHT22;4741;49.834;10.740;2023-04-24T19:40:47;8.00;99.90
9403;DHT22;4741;49.834;10.740;2023-04-24T19:43:13;7.80;99.90
9403;DHT22;4741;49.834;10.740;2023-04-24T19:45:40;7.90;99.90
9403;DHT22;4741;49.834;10.740;2023-04-24T19:48:07;7.90;99.90
9403;DHT22;4741;49.834;10.740;2023-04-24T19:50:33;7.70;99.90
9403;DHT22;4741;49.834;10.740;2023-04-24T19:53:00;7.90;99.90
9403;DHT22;4741;49.834;10.740;2023-04-24T19:55:27;7.80;99.90
9403;DHT22;4741;49.834;10.740;2023-04-24T19:57:53;7.70;99.90
9403;DHT22;4741;49.834;10.740;2023-04-24T20:00:20;7.60;99.90
9403;DHT22;4741;49.834;10.740;2023-04-24T20:02:47;7.70;99.90
9403;DHT22;4741;49.834;10.740;2023-04-24T20:05:14;7.60;99.90
9403;DHT22;4741;49.834;10.740;2023-04-24T20:07:41;7.60;99.90
9403;DHT22;4741;49.834;10.740;2023-04-24T20:10:08;7.30;99.90
9403;DHT22;4741;49.834;10.740;2023-04-24T20:12:35;7.60;99.90
9403;DHT22;4741;49.834;10.740;2023-04-24T20:15:02;7.70;99.90
9403;DHT22;4741;49.834;10.740;2023-04-24T20:17:29;7.70;99.90
9403;DHT22;4741;49.834;10.740;2023-04-24T20:19:56;7.50;99.90
9403;DHT22;4741;49.834;10.740;2023-04-24T20:22:23;7.80;99.90
9403;DHT22;4741;49.834;10.740;2023-04-24T20:24:49;7.80;99.90
9403;DHT22;4741;49.834;10.740;2023-04-24T20:27:17;7.90;99.90
9403;DHT22;4741;49.834;10.740;2023-04-24T20:29:43;7.70;99.90
9403;DHT22;4741;49.834;10.740;2023-04-24T20:32:10;7.50;99.90
9403;DHT22;4741;49.834;10.740;2023-04-24T20:34:37;7.70;99.90
9403;DHT22;4741;49.834;10.740;2023-04-24T20:37:03;7.70;99.90
9403;DHT22;4741;49.834;10.740;2023-04-24T20:39:30;7.70;99.90
9403;DHT22;4741;49.834;10.740;2023-04-24T20:41:57;7.80;99.90
9403;DHT22;4741;49.834;10.740;2023-04-24T20:44:24;7.80;99.90
9403;DHT22;4741;49.834;10.740;2023-04-24T20:46:50;7.90;99.90
9403;DHT22;4741;49.834;10.740;2023-04-24T20:49:17;7.80;99.90
9403;DHT22;4741;49.834;10.740;2023-04-24T20:51:44;7.70;99.90
9403;DHT22;4741;49.834;10.740;2023-04-24T20:54:11;7.70;99.90
9403;DHT22;4741;49.834;10.740;2023-04-24T20:56:37;7.60;99.90
9403;DHT22;4741;49.834;10.740;2023-04-24T20:59:04;7.60;99.90
9403;DHT22;4741;49.834;10.740;2023-04-24T21:01:31;7.50;99.90
9403;DHT22;4741;49.834;10.740;2023-04-24T21:03:57;8.10;99.90
9403;DHT22;4741;49.834;10.740;2023-04-24T21:06:24;7.60;99.90
9403;DHT22;4741;49.834;10.740;2023-04-24T21:08:51;7.70;99.90
9403;DHT22;4741;49.834;10.740;2023-04-24T21:11:18;7.70;99.90
9403;DHT22;4741;49.834;10.740;2023-04-24T21:13:44;7.60;99.90
9403;DHT22;4741;49.834;10.740;2023-04-24T21:16:11;7.60;99.90
9403;DHT22;4741;49.834;10.740;2023-04-24T21:18:38;7.80;99.90
9403;DHT22;4741;49.834;10.740;2023-04-24T21:21:07;7.80;99.90
9403;DHT22;4741;49.834;10.740;2023-04-24T21:23:34;7.90;99.90
9403;DHT22;4741;49.834;10.740;2023-04-24T21:26:04;7.90;99.90
9403;DHT22;4741;49.834;10.740;2023-04-24T21:28:31;7.90;99.90
9403;DHT22;4741;49.834;10.740;2023-04-24T21:30:58;7.90;99.90
9403;DHT22;4741;49.834;10.740;2023-04-24T21:33:25;7.90;99.90
9403;DHT22;4741;49.834;10.740;2023-04-24T21:35:51;8.00;99.90
9403;DHT22;4741;49.834;10.740;2023-04-24T21:38:18;8.00;99.90
9403;DHT22;4741;49.834;10.740;2023-04-24T21:40:48;8.00;99.90
9403;DHT22;4741;49.834;10.740;2023-04-24T21:43:16;8.10;99.90
9403;DHT22;4741;49.834;10.740;2023-04-24T21:45:43;8.10;99.90
9403;DHT22;4741;49.834;10.740;2023-04-24T21:48:10;8.10;99.90
9403;DHT22;4741;49.834;10.740;2023-04-24T21:50:37;8.00;99.90
9403;DHT22;4741;49.834;10.740;2023-04-24T21:53:03;7.90;99.90
9403;DHT22;4741;49.834;10.740;2023-04-24T21:55:30;8.10;99.90
9403;DHT22;4741;49.834;10.740;2023-04-24T21:57:57;8.10;99.90
9403;DHT22;4741;49.834;10.740;2023-04-24T22:00:23;8.20;99.90
9403;DHT22;4741;49.834;10.740;2023-04-24T22:02:50;8.10;99.90
9403;DHT22;4741;49.834;10.740;2023-04-24T22:05:17;8.00;99.90
9403;DHT22;4741;49.834;10.740;2023-04-24T22:07:44;8.20;99.90
9403;DHT22;4741;49.834;10.740;2023-04-24T22:10:14;8.00;99.90
9403;DHT22;4741;49.834;10.740;2023-04-24T22:12:41;9.00;99.90
9403;DHT22;4741;49.834;10.740;2023-04-24T22:15:08;8.30;99.90
9403;DHT22;4741;49.834;10.740;2023-04-24T22:17:35;8.30;99.90
9403;DHT22;4741;49.834;10.740;2023-04-24T22:20:02;8.30;99.90
9403;DHT22;4741;49.834;10.740;2023-04-24T22:22:30;8.30;99.90
9403;DHT22;4741;49.834;10.740;2023-04-24T22:24:57;8.30;99.90
9403;DHT22;4741;49.834;10.740;2023-04-24T22:27:24;8.30;99.90
9403;DHT22;4741;49.834;10.740;2023-04-24T22:29:51;8.30;99.90
9403;DHT22;4741;49.834;10.740;2023-04-24T22:32:18;8.30;99.90
9403;DHT22;4741;49.834;10.740;2023-04-24T22:34:45;8.20;99.90
9403;DHT22;4741;49.834;10.740;2023-04-24T22:37:12;8.20;99.90
9403;DHT22;4741;49.834;10.740;2023-04-24T22:39:38;8.00;99.90
9403;DHT22;4741;49.834;10.740;2023-04-24T22:42:05;8.00;99.90
9403;DHT22;4741;49.834;10.740;2023-04-24T22:44:31;8.30;99.90
9403;DHT22;4741;49.834;10.740;2023-04-24T22:46:58;8.10;99.90
9403;DHT22;4741;49.834;10.740;2023-04-24T22:49:25;8.20;99.90
9403;DHT22;4741;49.834;10.740;2023-04-24T22:51:52;8.20;99.90
9403;DHT22;4741;49.834;10.740;2023-04-24T22:54:23;8.20;99.90
9403;DHT22;4741;49.834;10.740;2023-04-24T22:56:49;8.20;99.90
9403;DHT22;4741;49.834;10.740;2023-04-24T22:59:18;8.10;99.90
9403;DHT22;4741;49.834;10.740;2023-04-24T23:01:44;8.30;99.90
9403;DHT22;4741;49.834;10.740;2023-04-24T23:04:11;8.20;99.90
9403;DHT22;4741;49.834;10.740;2023-04-24T23:06:38;8.10;99.90
9403;DHT22;4741;49.834;10.740;2023-04-24T23:09:04;8.10;99.90
9403;DHT22;4741;49.834;10.740;2023-04-24T23:11:32;8.10;99.90
9403;DHT22;4741;49.834;10.740;2023-04-24T23:13:59;8.10;99.90
9403;DHT22;4741;49.834;10.740;2023-04-24T23:16:26;8.10;99.90
9403;DHT22;4741;49.834;10.740;2023-04-24T23:18:53;8.10;99.90
9403;DHT22;4741;49.834;10.740;2023-04-24T23:21:19;8.00;99.90
9403;DHT22;4741;49.834;10.740;2023-04-24T23:23:46;8.10;99.90
9403;DHT22;4741;49.834;10.740;2023-04-24T23:26:13;8.10;99.90
9403;DHT22;4741;49.834;10.740;2023-04-24T23:28:40;8.10;99.90
9403;DHT22;4741;49.834;10.740;2023-04-24T23:31:07;8.10;99.90
9403;DHT22;4741;49.834;10.740;2023-04-24T23:33:33;8.10;99.90
9403;DHT22;4741;49.834;10.740;2023-04-24T23:36:00;8.10;99.90
9403;DHT22;4741;49.834;10.740;2023-04-24T23:38:26;8.10;99.90
9403;DHT22;4741;49.834;10.740;2023-04-24T23:41:08;8.10;99.90
9403;DHT22;4741;49.834;10.740;2023-04-24T23:43:35;8.20;99.90